createdAt,value
2019-05-17T00:01:46.868Z,98033.19
2019-05-17T00:06:52.663Z,98018.52
2019-05-17T00:11:57.919Z,98011.70
2019-05-17T00:17:03.114Z,98017.25
2019-05-17T00:22:08.625Z,98015.16
2019-05-17T00:27:17.089Z,98009.59
2019-05-17T00:32:22.607Z,98002.27
2019-05-17T00:37:27.779Z,97990.64
2019-05-17T00:42:33.062Z,97978.25
2019-05-17T00:47:38.330Z,97981.28
2019-05-17T00:52:47.242Z,97971.22
2019-05-17T00:57:51.949Z,97970.12
2019-05-17T01:02:57.414Z,97967.81
2019-05-17T01:08:02.854Z,97966.20
2019-05-17T01:13:08.390Z,97961.67
2019-05-17T01:18:16.288Z,97958.72
2019-05-17T01:23:22.618Z,97954.39
2019-05-17T01:28:28.149Z,97947.58
2019-05-17T01:33:33.314Z,97946.44
2019-05-17T01:38:38.417Z,97944.11
2019-05-17T01:43:44.054Z,97928.69
2019-05-17T01:48:49.221Z,97932.36
2019-05-17T01:53:57.350Z,97926.81
2019-05-17T01:59:02.352Z,97928.30
2019-05-17T02:04:07.533Z,97924.64
2019-05-17T02:09:12.721Z,97923.44
2019-05-17T02:14:18.272Z,97923.94
2019-05-17T02:19:23.444Z,97920.76
2019-05-17T02:24:28.637Z,97910.91
2019-05-17T02:29:33.904Z,97909.93
2019-05-17T02:34:39.069Z,97904.58
2019-05-17T02:40:01.049Z,97887.13
2019-05-17T02:44:53.191Z,97884.67
2019-05-17T02:49:59.542Z,97893.20
2019-05-17T02:55:05.519Z,97889.89
2019-05-17T03:00:13.344Z,97890.44
2019-05-17T03:05:18.618Z,97893.30
2019-05-17T03:10:28.855Z,97889.30
2019-05-17T03:15:32.475Z,97892.83
2019-05-17T03:20:38.311Z,97888.47
2019-05-17T03:25:44.089Z,97892.95
2019-05-17T03:30:55.654Z,97895.16
2019-05-17T03:35:57.775Z,97893.30
2019-05-17T03:41:17.683Z,97901.91
2019-05-17T03:46:13.636Z,97902.22
2019-05-17T03:51:17.043Z,97895.77
2019-05-17T03:56:22.652Z,97886.78
2019-05-17T04:01:28.894Z,97890.69
2019-05-17T04:06:34.618Z,97896.11
2019-05-17T04:11:42.699Z,97900.02
2019-05-17T04:16:46.772Z,97897.25
2019-05-17T04:21:53.694Z,97891.61
2019-05-17T04:26:59.211Z,97890.80
2019-05-17T04:32:04.492Z,97896.05
2019-05-17T04:37:12.915Z,97892.92
2019-05-17T04:42:16.897Z,97887.12
2019-05-17T04:47:23.236Z,97887.17
2019-05-17T04:52:28.400Z,97894.11
2019-05-17T04:57:33.911Z,97893.66
2019-05-17T05:02:39.075Z,97896.67
2019-05-17T05:07:44.542Z,97894.02
2019-05-17T05:12:52.350Z,97893.25
2019-05-17T05:17:56.674Z,97885.39
2019-05-17T05:23:02.906Z,97889.43
2019-05-17T05:28:08.089Z,97883.30
2019-05-17T05:33:13.690Z,97886.00
2019-05-17T05:38:18.856Z,97885.05
2019-05-17T05:43:23.974Z,97885.92
2019-05-17T05:48:32.368Z,97880.28
2019-05-17T05:53:36.863Z,97890.58
2019-05-17T05:58:42.798Z,97884.11
2019-05-17T06:03:48.189Z,97881.34
2019-05-17T06:08:54.575Z,97882.39
2019-05-17T06:14:01.597Z,97873.92
2019-05-17T06:19:06.717Z,97873.83
2019-05-17T06:24:12.371Z,97873.39
2019-05-17T06:29:18.901Z,97869.09
2019-05-17T06:34:24.204Z,97869.84
2019-05-17T06:39:29.598Z,97866.39
2019-05-17T06:44:35.589Z,97866.47
2019-05-17T06:49:42.358Z,97870.73
2019-05-17T06:54:47.900Z,97868.23
2019-05-17T06:59:53.303Z,97868.77
2019-05-17T07:05:05.067Z,97865.10
2019-05-17T07:10:11.186Z,97867.98
2019-05-17T07:15:17.002Z,97869.51
2019-05-17T07:20:23.370Z,97870.00
2019-05-17T07:25:30.347Z,97864.63
2019-05-17T07:30:35.738Z,97870.33
2019-05-17T07:35:41.360Z,97875.33
2019-05-17T07:40:46.907Z,97867.07
2019-05-17T07:45:52.194Z,97865.84
2019-05-17T07:50:59.346Z,97869.50
2019-05-17T07:56:05.930Z,97871.99
2019-05-17T08:01:11.017Z,97872.56
2019-05-17T08:06:16.242Z,97870.06
2019-05-17T08:11:21.527Z,97862.13
2019-05-17T08:16:26.783Z,97865.48
2019-05-17T08:21:32.083Z,97859.63
2019-05-17T08:26:37.353Z,97853.16
2019-05-17T08:31:42.615Z,97848.59
2019-05-17T08:36:49.860Z,97851.53
2019-05-17T08:41:54.896Z,97846.48
2019-05-17T08:47:00.399Z,97843.24
2019-05-17T08:52:05.654Z,97837.80
2019-05-17T08:57:10.915Z,97834.06
2019-05-17T09:02:19.732Z,97833.55
2019-05-17T09:07:24.167Z,97831.03
2019-05-17T09:12:30.018Z,97825.69
2019-05-17T09:17:35.434Z,97819.00
2019-05-17T09:22:40.704Z,97820.36
2019-05-17T09:27:45.952Z,97811.70
2019-05-17T09:32:53.884Z,97812.19
2019-05-17T09:38:00.536Z,97809.82
2019-05-17T09:43:09.854Z,97807.66
2019-05-17T09:48:14.684Z,97807.76
2019-05-17T09:53:20.283Z,97799.61
2019-05-17T09:58:25.924Z,97797.09
2019-05-17T10:03:31.194Z,97789.75
2019-05-17T10:08:36.441Z,97783.61
2019-05-17T10:13:41.700Z,97782.61
2019-05-17T10:18:47.348Z,97784.15
2019-05-17T10:23:52.988Z,97780.61
2019-05-17T10:28:59.393Z,97779.64
2019-05-17T10:34:04.717Z,97780.91
2019-05-17T10:39:10.109Z,97773.80
2019-05-17T10:44:15.349Z,97773.82
2019-05-17T10:49:20.968Z,97769.59
2019-05-17T10:54:26.221Z,97769.44
2019-05-17T10:59:31.616Z,97770.73
2019-05-17T11:04:36.881Z,97770.08
2019-05-17T11:09:42.471Z,97772.95
2019-05-17T11:14:55.845Z,97771.62
2019-05-17T11:19:54.725Z,97760.02
2019-05-17T11:24:59.966Z,97746.79
2019-05-17T11:30:07.532Z,97747.48
2019-05-17T11:35:12.895Z,97741.75
2019-05-17T11:40:19.490Z,97738.85
2019-05-17T11:45:29.074Z,97739.72
2019-05-17T11:50:32.819Z,97743.58
2019-05-17T11:55:38.230Z,97744.20
2019-05-17T12:00:43.755Z,97743.14
2019-05-17T12:05:49.365Z,97745.11
2019-05-17T12:10:54.828Z,97741.08
2019-05-17T12:16:00.555Z,97744.63
2019-05-17T12:21:06.842Z,97729.39
2019-05-17T12:26:12.081Z,97735.05
2019-05-17T12:31:17.665Z,97725.33
2019-05-17T12:36:23.270Z,97727.63
2019-05-17T12:41:28.907Z,97731.61
2019-05-17T12:46:34.144Z,97718.62
2019-05-17T12:51:40.281Z,97709.63
2019-05-17T12:56:45.532Z,97704.95
2019-05-17T13:01:51.100Z,97699.73
2019-05-17T13:06:56.702Z,97697.31
2019-05-17T13:12:01.951Z,97692.58
2019-05-17T13:17:07.215Z,97691.53
2019-05-17T13:22:12.811Z,97694.89
2019-05-17T13:27:18.104Z,97683.66
2019-05-17T13:32:23.331Z,97676.82
2019-05-17T13:37:28.562Z,97674.64
2019-05-17T13:42:34.676Z,97672.00
2019-05-17T13:47:39.945Z,97669.43
2019-05-17T13:52:45.181Z,97656.11
2019-05-17T13:57:51.230Z,97653.16
2019-05-17T14:02:56.492Z,97647.93
2019-05-17T14:08:01.737Z,97654.95
2019-05-17T14:13:06.970Z,97657.92
2019-05-17T14:18:12.244Z,97646.28
2019-05-17T14:23:17.724Z,97654.41
2019-05-17T14:28:22.974Z,97651.70
2019-05-17T14:33:28.599Z,97649.49
2019-05-17T14:38:33.865Z,97639.84
2019-05-17T14:43:39.979Z,97638.84
2019-05-17T14:48:46.053Z,97632.26
2019-05-17T14:53:52.991Z,97630.50
2019-05-17T14:58:58.134Z,97629.67
2019-05-17T15:04:03.402Z,97625.02
2019-05-17T15:09:11.540Z,97624.97
2019-05-17T15:14:15.802Z,97619.03
2019-05-17T15:19:21.170Z,97627.55
2019-05-17T15:24:27.403Z,97615.47
2019-05-17T15:29:33.090Z,97616.94
2019-05-17T15:34:38.370Z,97609.09
2019-05-17T15:39:43.918Z,97611.69
2019-05-17T15:44:49.163Z,97603.73
2019-05-17T15:49:54.561Z,97594.55
2019-05-17T15:54:59.735Z,97592.13
2019-05-17T16:00:05.732Z,97590.68
2019-05-17T16:05:11.364Z,97583.50
2019-05-17T16:10:17.228Z,97577.05
2019-05-17T16:15:22.913Z,97575.39
2019-05-17T16:20:28.175Z,97567.58
2019-05-17T16:25:34.094Z,97573.75
2019-05-17T16:30:39.422Z,97573.12
2019-05-17T16:35:44.645Z,97561.05
2019-05-17T16:40:50.251Z,97564.96
2019-05-17T16:45:55.493Z,97560.52
2019-05-17T16:51:01.096Z,97565.47
2019-05-17T16:56:07.185Z,97559.75
2019-05-17T17:01:12.434Z,97563.72
2019-05-17T17:06:17.675Z,97563.39
2019-05-17T17:11:22.913Z,97558.91
2019-05-17T17:16:28.187Z,97551.38
2019-05-17T17:21:34.241Z,97551.66
2019-05-17T17:26:39.523Z,97543.03
2019-05-17T17:31:45.283Z,97544.59
2019-05-17T17:36:52.044Z,97541.73
2019-05-17T17:41:57.291Z,97539.98
2019-05-17T17:47:02.563Z,97546.25
2019-05-17T17:52:07.813Z,97537.63
2019-05-17T17:57:13.082Z,97535.72
2019-05-17T18:02:18.326Z,97537.47
2019-05-17T18:07:24.653Z,97540.81
2019-05-17T18:12:30.326Z,97544.85
2019-05-17T18:17:39.264Z,97543.84
2019-05-17T18:22:42.973Z,97542.09
2019-05-17T18:27:48.550Z,97542.23
2019-05-17T18:32:53.798Z,97542.84
2019-05-17T18:38:00.192Z,97539.86
2019-05-17T18:43:05.627Z,97544.41
2019-05-17T18:48:11.655Z,97541.02
2019-05-17T18:53:17.435Z,97539.79
2019-05-17T18:58:22.742Z,97547.16
2019-05-17T19:03:27.984Z,97551.73
2019-05-17T19:08:33.247Z,97558.40
2019-05-17T19:13:38.900Z,97562.53
2019-05-17T19:18:44.169Z,97557.75
2019-05-17T19:23:49.721Z,97558.83
2019-05-17T19:28:54.958Z,97568.28
2019-05-17T19:34:00.343Z,97565.75
2019-05-17T19:39:07.427Z,97575.95
2019-05-17T19:44:12.839Z,97571.34
2019-05-17T19:49:18.088Z,97576.58
2019-05-17T19:54:23.645Z,97570.19
2019-05-17T19:59:28.877Z,97569.98
2019-05-17T20:04:34.117Z,97572.66
2019-05-17T20:09:39.744Z,97574.98
2019-05-17T20:14:45.006Z,97571.84
2019-05-17T20:19:50.289Z,97575.17
2019-05-17T20:24:55.632Z,97580.81
2019-05-17T20:30:00.872Z,97582.17
2019-05-17T20:35:08.407Z,97590.74
2019-05-17T20:40:14.541Z,97585.55
2019-05-17T20:45:32.085Z,97577.95
2019-05-17T20:50:26.967Z,97580.56
2019-05-17T20:55:32.543Z,97581.70
2019-05-17T21:00:38.090Z,97575.84
2019-05-17T21:05:44.306Z,97566.64
2019-05-17T21:10:49.543Z,97565.21
2019-05-17T21:15:54.779Z,97565.58
2019-05-17T21:21:00.039Z,97573.01
2019-05-17T21:26:05.555Z,97571.40
2019-05-17T21:31:11.123Z,97570.28
2019-05-17T21:36:16.354Z,97573.25
2019-05-17T21:41:21.747Z,97575.02
2019-05-17T21:46:28.154Z,97581.62
2019-05-17T21:51:33.744Z,97575.74
2019-05-17T21:56:40.624Z,97575.64
2019-05-17T22:01:46.558Z,97576.94
2019-05-17T22:06:52.094Z,97577.19
2019-05-17T22:12:00.318Z,97574.39
2019-05-17T22:17:05.724Z,97569.41
2019-05-17T22:22:10.972Z,97568.09
2019-05-17T22:27:16.208Z,97576.17
2019-05-17T22:32:21.453Z,97576.69
2019-05-17T22:37:27.040Z,97581.29
2019-05-17T22:42:32.290Z,97582.47
2019-05-17T22:47:37.816Z,97578.84
2019-05-17T22:52:43.198Z,97580.06
2019-05-17T22:57:48.429Z,97577.36
2019-05-17T23:02:53.663Z,97569.17
2019-05-17T23:07:59.080Z,97565.88
2019-05-17T23:13:05.137Z,97565.88
2019-05-17T23:18:10.661Z,97562.23
2019-05-17T23:23:16.767Z,97555.84
2019-05-17T23:28:21.993Z,97543.42
2019-05-17T23:33:27.984Z,97548.80
2019-05-17T23:38:34.310Z,97538.77
2019-05-17T23:43:39.561Z,97536.08
2019-05-17T23:48:45.264Z,97539.11
2019-05-17T23:53:50.833Z,97541.47
2019-05-17T23:58:56.092Z,97536.61
